메인 페이지
METAR-TAF:

METAR-TAF

공항 :

Balmaceda, 칠레

위도: 45-55S, 경도: 071-41W, 고도: 520m

현재 날씨관측

예보는 36분 전, 03:00시(UTC)에 발표되었습니다.
북서17kt
온도 6°C
습도 65%
기압 1020 hPa
시정 10km 이상

METAR: SCBA 030300Z AUTO 31017KT 9999 BKN250/// 06/00 Q1020

시각: 00:36 (03:36 UTC)

예보

예보는 5 시간 28분 전, 22:08시(UTC)에 발표되었습니다.
예보 대상 시간: 03일 00시부터 03일 24시까지 (UTC)
서북서28kt
시정 10km 이상
1500m 미만 상공 구름 및 적란운 없음
전환 중
03일 02시부터 03일 04시까지 (UTC)
서북서12kt
고도 7000ft 상공 구름 많음
전환 중
03일 11시부터 03일 13시까지 (UTC)
고도 4000ft 상공 구름 보통
고도 7000ft 상공 구름 많음
전환 중
03일 17시부터 03일 19시까지 (UTC)
서북서15kt

TAF: SCBA 022208Z 0300/0324 30028KT CAVOK TN02/0307Z TX16/0319Z BECMG 0302/0304 30012KT BKN070 BECMG 0311/0313 SCT040 BKN070 BECMG 0317/0319 30015KT

4,000개 이상의 공항 관측 자료 및 예보 (METAR 및 TAF 보고).

지도상에서 검색 가능한 기상관측소가 노란 점과 빨간 점으로 표시되어 있습니다.

기상관측소 명을 보려면 표시 위로 마우스를 이동하세요.

날씨 관측과 예보를 보려면 클릭하세요.

지도 변경 : 확대하려면 엑스 표시가 있는 녹색 버튼, 축소하려면 빼기 표시가 있는 녹색 버튼, 다음 페이지의 지도를 보려면 녹색 화살표를 클릭하세요.


METAR-TAF: